createdAt,value
2019-04-06T08:43:28.680Z,38.01
2019-04-06T08:48:36.258Z,34.00
2019-04-06T08:53:43.665Z,33.78
2019-04-06T08:58:51.304Z,37.96
2019-04-06T09:03:59.490Z,34.08
2019-04-06T09:09:07.221Z,32.08
2019-04-06T09:14:14.948Z,38.29
2019-04-06T09:19:22.588Z,32.11
2019-04-06T09:24:31.738Z,30.61
2019-04-06T09:29:39.526Z,30.78
2019-04-06T09:34:47.594Z,34.00
2019-04-06T09:39:55.046Z,28.25
2019-04-06T09:45:02.718Z,28.70
2019-04-06T09:50:10.489Z,25.77
2019-04-06T09:55:18.113Z,29.85
2019-04-06T10:00:25.704Z,25.29
2019-04-06T10:05:33.332Z,25.47
2019-04-06T10:10:40.994Z,24.63
2019-04-06T10:15:48.633Z,20.86
2019-04-06T10:20:56.301Z,20.89
2019-04-06T10:26:04.126Z,20.54
2019-04-06T10:31:11.486Z,22.31
2019-04-06T10:36:19.166Z,16.58
2019-04-06T10:41:26.990Z,18.39
2019-04-06T10:46:34.906Z,17.00
2019-04-06T10:51:42.240Z,19.59
2019-04-06T10:56:50.256Z,18.20
2019-04-06T11:01:57.884Z,16.78
2019-04-06T11:07:05.617Z,16.51
2019-04-06T11:12:13.335Z,17.09
2019-04-06T11:17:20.884Z,15.93
2019-04-06T11:22:28.524Z,16.31
2019-04-06T11:27:36.212Z,16.34
2019-04-06T11:32:43.833Z,15.94
2019-04-06T11:37:51.460Z,16.86
2019-04-06T11:42:59.055Z,17.30
2019-04-06T11:48:06.841Z,17.41
2019-04-06T11:53:14.447Z,17.63
2019-04-06T11:58:22.378Z,20.13
2019-04-06T12:03:29.929Z,19.85
2019-04-06T12:08:37.565Z,19.36
2019-04-06T12:13:45.451Z,19.62
2019-04-06T12:18:52.795Z,19.32
2019-04-06T12:24:00.585Z,18.53
2019-04-06T12:29:08.056Z,20.04
2019-04-06T12:34:15.760Z,20.08
2019-04-06T12:39:23.372Z,22.22
2019-04-06T12:44:31.017Z,22.49
2019-04-06T12:49:38.625Z,20.12
2019-04-06T12:54:46.462Z,20.46
2019-04-06T12:59:53.898Z,21.49
2019-04-06T13:05:01.717Z,21.64
2019-04-06T13:10:09.309Z,21.85
2019-04-06T13:15:16.789Z,24.67
2019-04-06T13:20:24.488Z,23.99
2019-04-06T13:25:32.005Z,22.67
2019-04-06T13:30:39.628Z,26.05
2019-04-06T13:35:47.224Z,22.37
2019-04-06T13:40:54.862Z,25.35
2019-04-06T13:46:02.460Z,22.35
2019-04-06T13:51:10.398Z,21.82
2019-04-06T13:56:17.662Z,22.92
2019-04-06T14:01:25.324Z,23.13
2019-04-06T14:06:32.917Z,23.66
2019-04-06T14:11:40.848Z,23.41
2019-04-06T14:16:48.817Z,23.33
2019-04-06T14:21:55.569Z,23.95
2019-04-06T14:27:03.229Z,25.29
2019-04-06T14:32:10.969Z,29.08
2019-04-06T14:37:18.460Z,28.81
2019-04-06T14:42:26.100Z,29.61
2019-04-06T14:47:33.839Z,32.70
2019-04-06T14:52:41.614Z,31.65
2019-04-06T14:57:49.044Z,33.15
2019-04-06T15:02:56.618Z,34.45
2019-04-06T15:08:04.516Z,35.54
2019-04-06T15:13:12.115Z,34.69
2019-04-06T15:18:19.621Z,34.75
2019-04-06T15:23:27.152Z,34.56
2019-04-06T15:28:34.781Z,35.22
2019-04-06T15:33:42.384Z,34.84
2019-04-06T15:38:50.040Z,35.73
2019-04-06T15:43:57.656Z,34.79
2019-04-06T15:49:05.345Z,34.53
2019-04-06T15:54:13.299Z,33.32
2019-04-06T15:59:20.871Z,32.26
2019-04-06T16:04:28.410Z,31.23
2019-04-06T16:09:37.418Z,30.63
2019-04-06T16:14:43.200Z,30.73
2019-04-06T16:19:50.878Z,30.36
2019-04-06T16:24:58.548Z,29.88
2019-04-06T16:30:06.242Z,30.29
2019-04-06T16:35:13.936Z,30.17
2019-04-06T16:40:21.548Z,28.92
2019-04-06T16:45:29.817Z,30.25
2019-04-06T16:50:37.573Z,29.06
2019-04-06T16:55:45.359Z,32.22
2019-04-06T17:00:52.383Z,34.35
2019-04-06T17:06:00.482Z,36.23
2019-04-06T17:11:07.310Z,35.79
2019-04-06T17:16:14.848Z,31.90
2019-04-06T17:21:22.885Z,31.34
2019-04-06T17:26:29.612Z,34.98
2019-04-06T17:31:37.288Z,31.05
2019-04-06T17:36:45.325Z,30.26
2019-04-06T17:41:52.103Z,30.42
2019-04-06T17:46:59.660Z,34.16
2019-04-06T17:52:07.492Z,31.83
2019-04-06T17:57:15.212Z,31.02
2019-04-06T18:02:22.548Z,30.10
2019-04-06T18:07:30.224Z,30.62
2019-04-06T18:12:38.238Z,30.04
2019-04-06T18:17:45.811Z,34.61
2019-04-06T18:22:53.703Z,34.38
2019-04-06T18:28:00.976Z,35.46
2019-04-06T18:33:08.579Z,36.46
2019-04-06T18:38:16.216Z,38.55
2019-04-06T18:43:23.972Z,46.15
2019-04-06T18:49:13.624Z,31.12
2019-04-06T18:54:11.804Z,30.23
2019-04-06T18:59:18.468Z,35.73
2019-04-06T19:04:26.152Z,31.74
2019-04-06T19:09:33.811Z,32.59
2019-04-06T19:14:41.588Z,33.22
2019-04-06T19:19:49.016Z,34.09
2019-04-06T19:24:56.695Z,34.62
2019-04-06T19:30:04.359Z,34.76
2019-04-06T19:35:12.168Z,35.47
2019-04-06T19:40:19.516Z,36.73
2019-04-06T19:45:27.128Z,36.41
2019-04-06T19:50:35.333Z,36.83
2019-04-06T19:55:41.893Z,36.20
2019-04-06T20:00:49.908Z,36.34
2019-04-06T20:05:57.212Z,37.35
2019-04-06T20:11:03.856Z,37.69
2019-04-06T20:16:12.072Z,37.53
2019-04-06T20:21:19.065Z,45.53
2019-04-06T20:26:25.756Z,46.08
2019-04-06T20:31:33.393Z,39.69
2019-04-06T20:36:40.996Z,39.22
2019-04-06T20:41:48.642Z,39.50
2019-04-06T20:46:56.240Z,48.06
2019-04-06T20:52:04.414Z,48.52
2019-04-06T20:57:11.014Z,40.75
2019-04-06T21:02:19.266Z,40.72
2019-04-06T21:07:25.777Z,39.01
2019-04-06T21:12:33.424Z,40.68
2019-04-06T21:17:41.033Z,41.21
2019-04-06T21:22:48.712Z,40.05
2019-04-06T21:27:56.819Z,40.36
2019-04-06T21:33:03.548Z,40.08
2019-04-06T21:38:11.173Z,49.29
2019-04-06T21:43:18.867Z,50.78
2019-04-06T21:48:26.982Z,42.09
2019-04-06T21:53:33.558Z,41.20
2019-04-06T21:58:41.491Z,41.74
2019-04-06T22:03:48.772Z,41.94
2019-04-06T22:08:56.785Z,42.01
2019-04-06T22:14:03.549Z,41.46
2019-04-06T22:19:11.200Z,49.42
2019-04-06T22:24:18.805Z,41.66
2019-04-06T22:29:26.501Z,40.17
2019-04-06T22:34:38.541Z,40.15
2019-04-06T22:39:41.312Z,40.73
2019-04-06T22:44:48.916Z,46.86
2019-04-06T22:49:56.592Z,49.11
2019-04-06T22:55:04.221Z,40.10
2019-04-06T23:00:12.430Z,40.74
2019-04-06T23:05:19.024Z,39.66
2019-04-06T23:10:26.695Z,40.28
2019-04-06T23:15:34.380Z,40.48
2019-04-06T23:20:42.663Z,40.92
2019-04-06T23:25:49.362Z,49.43
2019-04-06T23:30:57.020Z,41.29
2019-04-06T23:36:04.396Z,43.41
2019-04-06T23:41:12.040Z,43.14
2019-04-06T23:46:19.657Z,42.47
2019-04-06T23:51:27.278Z,45.15
2019-04-06T23:56:35.154Z,54.25
